This is the latest recevied weather packets stored in our database for station/object KO6MEX-13. If no packets are shown the sender has not sent any weather packets the latest 10 day(s).
| Time | Temp. | Humidity | Pressure | Rain* | Wind** | Luminosity | Snow |
|---|---|---|---|---|---|---|---|
| 1777930679 | 18.89° C | 55% | 1018.9 hPa | 0 mm | - | 719 W/m² | - |
| 1777930375 | 19.44° C | 54% | 1019 hPa | 0 mm | - | 412 W/m² | - |
| 1777930072 | 18.33° C | 57% | 1019 hPa | 0 mm | - | 674 W/m² | - |
| 1777929768 | 18.89° C | 56% | 1019.2 hPa | 0 mm | - | 844 W/m² | - |
| 1777929466 | 18.89° C | 53% | 1019 hPa | 0 mm | - | 755 W/m² | - |
| 1777929162 | 18.89° C | 52% | 1019 hPa | 0 mm | - | 918 W/m² | - |
| 1777928860 | 18.33° C | 55% | 1018.9 hPa | 0 mm | - | 725 W/m² | - |
| 1777928557 | 18.33° C | 58% | 1019.1 hPa | 0 mm | - | 561 W/m² | - |
| 1777928253 | 18.33° C | 57% | 1018.9 hPa | 0 mm | - | 873 W/m² | - |
| 1777927951 | 17.78° C | 60% | 1019.1 hPa | 0 mm | - | 761 W/m² | - |
| 1777927649 | 17.78° C | 60% | 1019.3 hPa | 0 mm | - | 619 W/m² | - |
| 1777927348 | 17.78° C | 59% | 1019 hPa | 0 mm | - | 622 W/m² | - |
| 1777927047 | 17.78° C | 59% | 1019.2 hPa | 0 mm | - | 498 W/m² | - |
| 1777926744 | 17.78° C | 59% | 1019.1 hPa | 0 mm | - | 394 W/m² | - |
| 1777926443 | 18.33° C | 58% | 1019.1 hPa | 0 mm | - | 419 W/m² | - |
| 1777926141 | 18.33° C | 57% | 1019.1 hPa | 0 mm | - | 697 W/m² | - |
| 1777925838 | 18.33° C | 58% | 1019.1 hPa | 0 mm | - | 645 W/m² | - |
| 1777925535 | 18.33° C | 56% | 1019.1 hPa | 0 mm | - | 685 W/m² | - |
| 1777925233 | 18.33° C | 56% | 1019 hPa | 0 mm | - | 674 W/m² | - |
| 1777924929 | 18.33° C | 57% | 1018.9 hPa | 0 mm | - | 985 W/m² | - |
| 1777924625 | 18.89° C | 54% | 1019 hPa | 0 mm | - | 969 W/m² | - |
| 1777924321 | 18.89° C | 56% | 1019 hPa | 0 mm | - | 878 W/m² | - |
| 1777924018 | 17.78° C | 57% | 1019.1 hPa | 0 mm | - | 870 W/m² | - |
| 1777923714 | 17.78° C | 58% | 1019 hPa | 0 mm | - | 836 W/m² | - |
| 1777923411 | 18.33° C | 55% | 1018.8 hPa | 0 mm | - | 804 W/m² | - |
* Rain latest hour (hover to see other rain measurements)
** Current wind speed in m/s (hover to see current wind gust speed)